Time;durP1;ratioP1;P1;durP2;ratioP2;P2;SDS_P1;SDS_P2;PMS_P1;PMS_P2;Temp;Humidity;BMP_temperature;BMP_pressure;BME280_temperature;BME280_humidity;BME280_pressure;Samples;Min_cycle;Max_cycle;Signal;HPM_P1;HPM_P2
2022/02/14 00:01:47;;;;;;;;;;;8.30;99.90;;;;;;5036405;28;20434;-82
2022/02/14 00:04:13;;;;;;;;;;;8.40;99.90;;;;;;5054225;28;20005;-81
2022/02/14 00:06:38;;;;;;;;;;;8.30;99.90;;;;;;5054678;28;19909;-80
2022/02/14 00:09:04;;;;;;;;;;;8.20;99.90;;;;;;5036340;28;19996;-81
2022/02/14 00:11:30;;;;;;;;;;;8.20;99.90;;;;;;5036280;28;19913;-80
2022/02/14 00:13:55;;;;;;;;;;;8.20;99.90;;;;;;5054171;28;20416;-82
2022/02/14 00:16:21;;;;;;;;;;;8.20;99.90;;;;;;5053846;28;19928;-82
2022/02/14 00:18:46;;;;;;;;;;;8.20;99.90;;;;;;5054032;28;19916;-80
2022/02/14 00:21:12;;;;;;;;;;;8.20;99.90;;;;;;5054051;28;19996;-79
2022/02/14 00:23:38;;;;;;;;;;;8.20;99.90;;;;;;5053856;28;19913;-80
2022/02/14 00:26:03;;;;;;;;;;;8.20;99.90;;;;;;5036105;28;19916;-80
2022/02/14 00:28:29;;;;;;;;;;;8.10;99.90;;;;;;5053886;28;20400;-80
2022/02/14 00:30:54;;;;;;;;;;;8.10;99.90;;;;;;5036137;28;19909;-81
2022/02/14 00:33:20;;;;;;;;;;;8.10;99.90;;;;;;5054037;28;19909;-81
2022/02/14 00:35:47;;;;;;;;;;;8.10;99.90;;;;;;5036074;28;20331;-79
2022/02/14 00:38:13;;;;;;;;;;;8.10;99.90;;;;;;5035974;28;19919;-79
2022/02/14 00:40:39;;;;;;;;;;;8.00;99.90;;;;;;5053716;28;19924;-81
2022/02/14 00:43:05;;;;;;;;;;;8.10;99.90;;;;;;5035716;28;19917;-79
2022/02/14 00:45:30;;;;;;;;;;;8.10;99.90;;;;;;5053816;28;19909;-78
2022/02/14 00:47:56;;;;;;;;;;;8.10;99.90;;;;;;5053710;28;20261;-81
2022/02/14 00:50:21;;;;;;;;;;;8.10;99.90;;;;;;5053593;28;20381;-80
2022/02/14 00:52:47;;;;;;;;;;;8.10;99.90;;;;;;5053554;28;19909;-79
2022/02/14 00:55:14;;;;;;;;;;;8.10;99.90;;;;;;5054009;28;19958;-80
2022/02/14 00:57:40;;;;;;;;;;;8.10;99.90;;;;;;5053546;28;19908;-80
2022/02/14 01:00:07;;;;;;;;;;;8.10;99.90;;;;;;5035628;28;19909;-82
2022/02/14 01:02:32;;;;;;;;;;;8.10;99.90;;;;;;5053419;28;19913;-81
2022/02/14 01:04:58;;;;;;;;;;;8.10;99.90;;;;;;5035621;28;19958;-81
2022/02/14 01:07:24;;;;;;;;;;;8.10;99.90;;;;;;5054501;28;19971;-81
2022/02/14 01:09:49;;;;;;;;;;;8.10;99.90;;;;;;5039661;28;20423;-79
2022/02/14 01:12:15;;;;;;;;;;;8.10;99.90;;;;;;5057534;28;19909;-81
2022/02/14 01:14:41;;;;;;;;;;;8.10;99.90;;;;;;5057570;28;20023;-83
2022/02/14 01:17:07;;;;;;;;;;;8.00;99.90;;;;;;5039378;28;19921;-82
2022/02/14 01:19:32;;;;;;;;;;;8.00;99.90;;;;;;5039498;28;19955;-81
2022/02/14 01:21:58;;;;;;;;;;;8.10;99.90;;;;;;5057402;28;20009;-79
2022/02/14 01:24:23;;;;;;;;;;;8.00;99.90;;;;;;5039372;28;19912;-80
2022/02/14 01:26:49;;;;;;;;;;;8.00;99.90;;;;;;5057367;28;20420;-81
2022/02/14 01:29:15;;;;;;;;;;;8.00;99.90;;;;;;5057255;28;20000;-79
2022/02/14 01:31:41;;;;;;;;;;;8.00;99.90;;;;;;5039296;28;19909;-81
2022/02/14 01:34:07;;;;;;;;;;;8.00;99.90;;;;;;5057265;28;19913;-79
2022/02/14 01:36:32;;;;;;;;;;;8.00;99.90;;;;;;5057103;28;19912;-80
2022/02/14 01:38:58;;;;;;;;;;;8.00;99.90;;;;;;5057005;28;19909;-79
2022/02/14 01:41:23;;;;;;;;;;;8.00;99.90;;;;;;5057199;28;19976;-83
2022/02/14 01:43:49;;;;;;;;;;;8.00;99.90;;;;;;5057171;28;19912;-78
2022/02/14 01:46:15;;;;;;;;;;;8.00;99.90;;;;;;5056879;28;19916;-79
2022/02/14 01:48:40;;;;;;;;;;;8.00;99.90;;;;;;5056928;28;19938;-80
2022/02/14 01:51:07;;;;;;;;;;;8.00;99.90;;;;;;5056831;28;20277;-80
2022/02/14 01:53:33;;;;;;;;;;;8.00;99.90;;;;;;5056688;28;19909;-79
2022/02/14 01:55:58;;;;;;;;;;;8.00;99.90;;;;;;5056826;28;19909;-79
2022/02/14 01:58:24;;;;;;;;;;;8.00;99.90;;;;;;5056684;28;19916;-80
2022/02/14 02:00:49;;;;;;;;;;;8.00;99.90;;;;;;5057093;28;19956;-80
2022/02/14 02:03:16;;;;;;;;;;;8.00;99.90;;;;;;5038653;28;19959;-80
2022/02/14 02:05:45;;;;;;;;;;;8.00;99.90;;;;;;5056568;28;19916;-80
2022/02/14 02:08:11;;;;;;;;;;;7.90;99.90;;;;;;5056735;28;19913;-80
2022/02/14 02:10:37;;;;;;;;;;;7.90;99.90;;;;;;5056591;28;19909;-78
2022/02/14 02:13:03;;;;;;;;;;;7.90;99.90;;;;;;5056829;28;19959;-83
2022/02/14 02:15:29;;;;;;;;;;;7.90;99.90;;;;;;5056646;28;19913;-80
2022/02/14 02:17:54;;;;;;;;;;;7.80;99.90;;;;;;5037641;28;19924;-80
2022/02/14 02:20:20;;;;;;;;;;;7.80;99.90;;;;;;5056341;28;20284;-79
2022/02/14 02:22:47;;;;;;;;;;;7.80;99.90;;;;;;5056203;28;20381;-81
2022/02/14 02:25:13;;;;;;;;;;;7.80;99.90;;;;;;5056195;28;19912;-80
2022/02/14 02:27:39;;;;;;;;;;;7.70;99.90;;;;;;5056230;28;19924;-81
2022/02/14 02:30:06;;;;;;;;;;;7.60;99.90;;;;;;5056211;28;19909;-80
2022/02/14 02:32:32;;;;;;;;;;;7.60;99.90;;;;;;5056106;28;19909;-78
2022/02/14 02:34:58;;;;;;;;;;;7.60;99.90;;;;;;5056017;28;19916;-78
2022/02/14 02:37:24;;;;;;;;;;;7.60;99.90;;;;;;5038004;28;19909;-79
2022/02/14 02:39:49;;;;;;;;;;;7.50;99.90;;;;;;5038015;28;20353;-79
2022/02/14 02:42:16;;;;;;;;;;;7.50;99.90;;;;;;5037956;28;19909;-79
2022/02/14 02:44:43;;;;;;;;;;;7.40;99.90;;;;;;5056192;28;20258;-79
2022/02/14 02:47:10;;;;;;;;;;;7.40;99.90;;;;;;5055927;28;19909;-78
2022/02/14 02:49:36;;;;;;;;;;;7.40;99.90;;;;;;5055754;28;19916;-79
2022/02/14 02:52:02;;;;;;;;;;;7.40;99.90;;;;;;5055749;28;19964;-80
2022/02/14 02:54:28;;;;;;;;;;;7.30;99.90;;;;;;5055540;28;19908;-81
2022/02/14 02:56:54;;;;;;;;;;;7.30;99.90;;;;;;5037687;28;19909;-79
2022/02/14 02:59:20;;;;;;;;;;;7.20;99.90;;;;;;5055864;28;19909;-79
2022/02/14 03:01:46;;;;;;;;;;;7.20;99.90;;;;;;5055649;28;19916;-80
2022/02/14 03:04:12;;;;;;;;;;;7.20;99.90;;;;;;5055438;28;19912;-82
2022/02/14 03:06:38;;;;;;;;;;;7.20;99.90;;;;;;5037536;28;19912;-78
2022/02/14 03:09:05;;;;;;;;;;;7.20;99.90;;;;;;5055591;28;19924;-79
2022/02/14 03:11:31;;;;;;;;;;;7.10;99.90;;;;;;5055314;28;19935;-80
2022/02/14 03:13:57;;;;;;;;;;;7.10;99.90;;;;;;5055375;28;19913;-78
2022/02/14 03:16:23;;;;;;;;;;;7.10;99.90;;;;;;5055013;28;19927;-79
2022/02/14 03:18:49;;;;;;;;;;;7.10;99.90;;;;;;5055216;28;20285;-78
2022/02/14 03:21:15;;;;;;;;;;;7.00;99.90;;;;;;5055123;28;19909;-78
2022/02/14 03:23:41;;;;;;;;;;;7.10;99.90;;;;;;5055134;28;19912;-78
2022/02/14 03:26:07;;;;;;;;;;;7.10;99.90;;;;;;5055281;28;20391;-78
2022/02/14 03:28:32;;;;;;;;;;;7.00;99.90;;;;;;5054993;28;20281;-80
2022/02/14 03:30:58;;;;;;;;;;;7.00;99.90;;;;;;5036278;28;19909;-78
2022/02/14 03:33:24;;;;;;;;;;;7.00;99.90;;;;;;5055324;28;19963;-80
2022/02/14 03:35:50;;;;;;;;;;;7.00;99.90;;;;;;5055021;28;19932;-80
2022/02/14 03:38:16;;;;;;;;;;;7.00;99.90;;;;;;5054901;28;19959;-78
2022/02/14 03:40:42;;;;;;;;;;;7.00;99.90;;;;;;5036847;28;19967;-80
2022/02/14 03:43:08;;;;;;;;;;;7.00;99.90;;;;;;5036706;28;20424;-78
2022/02/14 03:45:34;;;;;;;;;;;7.00;99.90;;;;;;5055059;28;19935;-79
2022/02/14 03:48:00;;;;;;;;;;;7.00;99.90;;;;;;5054779;28;19996;-78
2022/02/14 03:50:25;;;;;;;;;;;7.00;99.90;;;;;;5054587;28;20021;-78
2022/02/14 03:52:51;;;;;;;;;;;6.90;99.90;;;;;;5054448;28;19915;-79
2022/02/14 03:55:17;;;;;;;;;;;6.90;99.90;;;;;;5054906;28;20274;-79
2022/02/14 03:57:43;;;;;;;;;;;6.90;99.90;;;;;;5054552;28;20000;-78
2022/02/14 04:00:10;;;;;;;;;;;6.90;99.90;;;;;;5054419;28;19952;-79
2022/02/14 04:02:36;;;;;;;;;;;6.90;99.90;;;;;;5036416;28;20003;-78
2022/02/14 04:05:03;;;;;;;;;;;6.90;99.90;;;;;;5054306;28;20000;-82
2022/02/14 04:07:29;;;;;;;;;;;6.90;99.90;;;;;;5054283;28;19948;-79
2022/02/14 04:09:54;;;;;;;;;;;6.90;99.90;;;;;;5054267;28;20377;-80
2022/02/14 04:12:20;;;;;;;;;;;6.90;99.90;;;;;;5054202;28;19948;-79
2022/02/14 04:14:46;;;;;;;;;;;6.90;99.90;;;;;;5054413;28;20357;-80
2022/02/14 04:17:12;;;;;;;;;;;6.90;99.90;;;;;;5053528;28;20077;-79
2022/02/14 04:19:37;;;;;;;;;;;6.80;99.90;;;;;;5054302;28;19909;-79
2022/02/14 04:22:03;;;;;;;;;;;6.80;99.90;;;;;;5036156;28;19962;-78
2022/02/14 04:24:28;;;;;;;;;;;6.80;99.90;;;;;;5053955;28;20392;-81
2022/02/14 04:26:54;;;;;;;;;;;6.80;99.90;;;;;;5036005;28;19909;-78
2022/02/14 04:29:20;;;;;;;;;;;6.80;99.90;;;;;;5036059;28;19916;-80
2022/02/14 04:31:45;;;;;;;;;;;6.80;99.90;;;;;;5053876;28;19924;-78
2022/02/14 04:34:11;;;;;;;;;;;6.80;99.90;;;;;;5053841;28;19909;-78
2022/02/14 04:36:36;;;;;;;;;;;6.70;99.90;;;;;;5053815;28;19909;-79
2022/02/14 04:39:02;;;;;;;;;;;6.70;99.90;;;;;;5035885;28;19909;-78
2022/02/14 04:41:28;;;;;;;;;;;6.80;99.90;;;;;;5035800;28;20028;-78
2022/02/14 04:43:53;;;;;;;;;;;6.70;99.90;;;;;;5053637;28;19912;-79
2022/02/14 04:46:19;;;;;;;;;;;6.70;99.90;;;;;;5053701;28;19915;-79
2022/02/14 04:48:45;;;;;;;;;;;6.70;99.90;;;;;;5053668;28;19916;-78
2022/02/14 04:51:11;;;;;;;;;;;6.70;99.90;;;;;;5036049;28;19931;-80
2022/02/14 04:53:37;;;;;;;;;;;6.70;99.90;;;;;;5053557;28;19909;-78
2022/02/14 04:56:02;;;;;;;;;;;6.70;99.90;;;;;;5035700;28;19932;-79
2022/02/14 04:58:28;;;;;;;;;;;6.70;99.90;;;;;;5053556;28;19962;-79
2022/02/14 05:00:54;;;;;;;;;;;6.60;99.90;;;;;;5053551;28;19916;-78
2022/02/14 05:03:19;;;;;;;;;;;6.60;99.90;;;;;;5053478;28;19913;-81
2022/02/14 05:05:45;;;;;;;;;;;6.60;99.90;;;;;;5053539;28;20003;-80
2022/02/14 05:08:10;;;;;;;;;;;6.60;99.90;;;;;;5035659;28;20289;-80
2022/02/14 05:10:36;;;;;;;;;;;6.50;99.90;;;;;;5035566;28;20004;-81
2022/02/14 05:13:01;;;;;;;;;;;6.40;99.90;;;;;;5053334;28;19916;-79
2022/02/14 05:15:27;;;;;;;;;;;6.50;99.90;;;;;;5035233;28;19912;-80
2022/02/14 05:17:53;;;;;;;;;;;6.50;99.90;;;;;;5052920;28;20008;-78
2022/02/14 05:20:18;;;;;;;;;;;6.40;99.90;;;;;;5053319;28;19909;-78
2022/02/14 05:22:44;;;;;;;;;;;6.40;99.90;;;;;;5053266;28;20373;-78
2022/02/14 05:25:09;;;;;;;;;;;6.50;99.90;;;;;;5053421;28;20008;-80
2022/02/14 05:27:35;;;;;;;;;;;6.40;99.90;;;;;;5053365;28;19955;-78
2022/02/14 05:30:01;;;;;;;;;;;6.40;99.90;;;;;;5035364;28;19931;-79
2022/02/14 05:32:27;;;;;;;;;;;6.40;99.90;;;;;;5053565;28;19909;-78
2022/02/14 05:34:53;;;;;;;;;;;6.40;99.90;;;;;;5053344;28;19913;-80
2022/02/14 05:37:18;;;;;;;;;;;6.40;99.90;;;;;;5053204;28;19916;-79
2022/02/14 05:39:45;;;;;;;;;;;6.40;99.90;;;;;;5035280;28;19912;-80
2022/02/14 05:42:12;;;;;;;;;;;6.30;99.90;;;;;;5053501;28;19944;-80
2022/02/14 05:44:37;;;;;;;;;;;6.30;99.90;;;;;;5053036;28;20003;-80
2022/02/14 05:47:03;;;;;;;;;;;6.30;99.90;;;;;;5053211;28;20435;-81
2022/02/14 05:49:28;;;;;;;;;;;6.30;99.90;;;;;;5053161;28;20043;-79
2022/02/14 05:51:54;;;;;;;;;;;6.20;99.90;;;;;;5053008;28;19932;-80
2022/02/14 05:54:20;;;;;;;;;;;6.20;99.90;;;;;;5055611;28;19966;-80
2022/02/14 05:56:45;;;;;;;;;;;6.20;99.90;;;;;;5038910;28;19959;-79
2022/02/14 05:59:11;;;;;;;;;;;6.20;99.90;;;;;;5056798;28;19915;-79
2022/02/14 06:01:36;;;;;;;;;;;6.20;99.90;;;;;;5056637;28;19909;-77
2022/02/14 06:04:02;;;;;;;;;;;6.10;99.90;;;;;;5056581;28;20365;-79
2022/02/14 06:06:28;;;;;;;;;;;6.10;99.90;;;;;;5057005;28;19908;-79
2022/02/14 06:08:53;;;;;;;;;;;6.10;99.90;;;;;;5056655;28;20291;-78
2022/02/14 06:11:19;;;;;;;;;;;6.10;99.90;;;;;;5038563;28;19908;-80
2022/02/14 06:13:44;;;;;;;;;;;6.10;99.90;;;;;;5056470;28;19909;-80
2022/02/14 06:16:10;;;;;;;;;;;6.00;99.90;;;;;;5056544;28;19924;-80
2022/02/14 06:18:36;;;;;;;;;;;6.00;99.90;;;;;;5038460;28;19913;-80
2022/02/14 06:21:01;;;;;;;;;;;6.00;99.90;;;;;;5056347;28;19916;-78
2022/02/14 06:23:27;;;;;;;;;;;6.00;99.90;;;;;;5038324;28;19912;-78
2022/02/14 06:25:53;;;;;;;;;;;6.00;99.90;;;;;;5056229;28;19920;-79
2022/02/14 06:28:18;;;;;;;;;;;6.00;99.90;;;;;;5056189;28;19913;-78
2022/02/14 06:30:46;;;;;;;;;;;6.00;99.90;;;;;;5038256;28;19962;-79
2022/02/14 06:33:13;;;;;;;;;;;6.00;99.90;;;;;;5056079;28;19947;-78
2022/02/14 06:35:39;;;;;;;;;;;6.00;99.90;;;;;;5056062;28;20338;-80
2022/02/14 06:38:05;;;;;;;;;;;6.10;99.90;;;;;;5055989;28;19944;-79
2022/02/14 06:40:30;;;;;;;;;;;6.10;99.90;;;;;;5055945;28;20327;-78
2022/02/14 06:42:56;;;;;;;;;;;6.10;99.90;;;;;;5055783;28;19913;-78
2022/02/14 06:45:22;;;;;;;;;;;6.10;99.90;;;;;;5055836;28;19917;-80
2022/02/14 06:47:47;;;;;;;;;;;6.10;99.90;;;;;;5037938;28;20289;-80
2022/02/14 06:50:13;;;;;;;;;;;6.10;99.90;;;;;;5055847;28;20380;-79
2022/02/14 06:52:39;;;;;;;;;;;6.00;99.90;;;;;;5055721;28;19959;-78
2022/02/14 06:55:08;;;;;;;;;;;6.00;99.90;;;;;;5037804;28;19909;-78
2022/02/14 06:57:34;;;;;;;;;;;6.10;99.90;;;;;;5055662;28;19917;-80
2022/02/14 07:00:00;;;;;;;;;;;6.00;99.90;;;;;;5055972;28;19916;-82
2022/02/14 07:02:26;;;;;;;;;;;6.10;99.90;;;;;;5055566;28;19955;-78
2022/02/14 07:04:51;;;;;;;;;;;6.00;99.90;;;;;;5036358;28;19912;-79
2022/02/14 07:07:19;;;;;;;;;;;6.00;99.90;;;;;;5055750;28;19909;-79
2022/02/14 07:09:45;;;;;;;;;;;6.00;99.90;;;;;;5055507;28;19915;-80
2022/02/14 07:12:11;;;;;;;;;;;6.10;99.90;;;;;;5055400;28;19908;-81
2022/02/14 07:14:37;;;;;;;;;;;6.10;99.90;;;;;;5037403;28;19959;-79
2022/02/14 07:17:02;;;;;;;;;;;6.10;99.90;;;;;;5037197;28;19921;-80
2022/02/14 07:19:28;;;;;;;;;;;6.20;99.90;;;;;;5055203;28;19915;-79
2022/02/14 07:21:54;;;;;;;;;;;6.10;99.90;;;;;;5055252;28;20446;-79
2022/02/14 07:24:19;;;;;;;;;;;6.10;99.90;;;;;;5055015;28;19913;-79
2022/02/14 07:26:45;;;;;;;;;;;6.10;99.90;;;;;;5055504;28;20373;-79
2022/02/14 07:29:10;;;;;;;;;;;6.00;99.90;;;;;;5037080;28;19909;-79
2022/02/14 07:31:36;;;;;;;;;;;6.20;99.90;;;;;;5054940;28;19930;-79
2022/02/14 07:34:02;;;;;;;;;;;6.20;99.90;;;;;;5054988;28;19912;-80
2022/02/14 07:36:27;;;;;;;;;;;6.30;99.90;;;;;;5054900;28;19909;-80
2022/02/14 07:38:56;;;;;;;;;;;6.20;99.90;;;;;;5054815;28;20439;-81
2022/02/14 07:41:22;;;;;;;;;;;6.30;99.90;;;;;;5036936;28;20004;-81
2022/02/14 07:43:47;;;;;;;;;;;6.30;99.90;;;;;;5036817;28;19944;-79
2022/02/14 07:46:13;;;;;;;;;;;6.50;99.90;;;;;;5036788;28;19959;-81
2022/02/14 07:48:39;;;;;;;;;;;6.80;99.90;;;;;;5054629;28;19908;-80
2022/02/14 07:51:05;;;;;;;;;;;7.10;99.90;;;;;;5054822;28;19909;-81
2022/02/14 07:53:30;;;;;;;;;;;7.30;99.90;;;;;;5036642;28;20289;-80
2022/02/14 07:55:56;;;;;;;;;;;8.00;99.90;;;;;;5054548;28;20003;-79
2022/02/14 07:58:21;;;;;;;;;;;8.20;99.90;;;;;;5054484;28;19909;-80
2022/02/14 08:00:47;;;;;;;;;;;8.20;99.90;;;;;;5036556;28;19909;-78
2022/02/14 08:03:13;;;;;;;;;;;8.40;99.90;;;;;;5054346;28;19916;-78
2022/02/14 08:05:38;;;;;;;;;;;9.10;99.90;;;;;;5054415;28;19909;-81
2022/02/14 08:08:04;;;;;;;;;;;9.40;99.90;;;;;;5054380;28;19916;-80
2022/02/14 08:10:29;;;;;;;;;;;9.50;99.90;;;;;;5054290;28;19924;-79
2022/02/14 08:12:55;;;;;;;;;;;9.60;99.90;;;;;;5054483;28;19951;-80
2022/02/14 08:15:21;;;;;;;;;;;9.80;99.90;;;;;;5054475;28;19909;-81
2022/02/14 08:17:48;;;;;;;;;;;9.30;99.90;;;;;;5035565;28;19928;-81
2022/02/14 08:20:14;;;;;;;;;;;9.00;99.90;;;;;;5036253;28;19997;-82
2022/02/14 08:22:39;;;;;;;;;;;8.50;99.90;;;;;;5053985;28;20338;-80
2022/02/14 08:25:05;;;;;;;;;;;8.40;99.90;;;;;;5054039;28;19978;-80
2022/02/14 08:27:30;;;;;;;;;;;8.80;99.90;;;;;;5053982;28;19923;-80
2022/02/14 08:29:57;;;;;;;;;;;9.90;99.90;;;;;;5053922;28;20435;-80
2022/02/14 08:32:23;;;;;;;;;;;10.60;99.90;;;;;;5054026;28;20436;-80
2022/02/14 08:34:49;;;;;;;;;;;11.10;99.90;;;;;;5035994;28;19952;-81
2022/02/14 08:37:14;;;;;;;;;;;11.50;99.90;;;;;;5054226;28;19958;-81
2022/02/14 08:39:40;;;;;;;;;;;11.10;99.90;;;;;;5053880;28;19916;-82
2022/02/14 08:42:06;;;;;;;;;;;10.60;99.90;;;;;;5035892;28;19916;-81
2022/02/14 08:44:32;;;;;;;;;;;10.50;99.90;;;;;;5053694;28;20054;-81
2022/02/14 08:46:59;;;;;;;;;;;11.60;99.90;;;;;;5054146;28;19940;-79
2022/02/14 08:49:25;;;;;;;;;;;10.80;99.90;;;;;;5054230;28;19924;-79
2022/02/14 08:51:51;;;;;;;;;;;9.70;99.90;;;;;;5053632;28;19909;-81
2022/02/14 08:54:17;;;;;;;;;;;9.00;99.90;;;;;;5053639;28;19909;-78
2022/02/14 08:56:43;;;;;;;;;;;8.70;99.90;;;;;;5053561;28;19909;-80
2022/02/14 08:59:08;;;;;;;;;;;8.40;99.90;;;;;;5053518;28;19919;-80
2022/02/14 09:01:34;;;;;;;;;;;8.10;99.90;;;;;;5053710;28;19944;-76
2022/02/14 09:04:00;;;;;;;;;;;7.80;99.90;;;;;;5035694;28;20007;-82
2022/02/14 09:06:27;;;;;;;;;;;7.70;99.90;;;;;;5053482;28;19909;-81
2022/02/14 09:08:53;;;;;;;;;;;7.60;99.90;;;;;;5053454;28;19909;-80
2022/02/14 09:11:19;;;;;;;;;;;7.60;99.90;;;;;;5035622;28;19999;-82
2022/02/14 09:13:45;;;;;;;;;;;7.60;99.90;;;;;;5053455;28;20334;-84
2022/02/14 09:16:10;;;;;;;;;;;7.70;99.90;;;;;;5053172;28;20290;-80
2022/02/14 09:18:37;;;;;;;;;;;7.80;99.90;;;;;;5053823;28;20001;-80
2022/02/14 09:21:03;;;;;;;;;;;7.90;99.90;;;;;;5053721;28;19908;-80
2022/02/14 09:23:29;;;;;;;;;;;8.00;99.90;;;;;;5035290;28;19913;-80
2022/02/14 09:25:55;;;;;;;;;;;8.00;99.90;;;;;;5035390;28;19959;-78
2022/02/14 09:28:21;;;;;;;;;;;7.90;99.90;;;;;;5054195;28;19908;-81
2022/02/14 09:30:47;;;;;;;;;;;7.90;99.90;;;;;;5039314;28;19909;-80
2022/02/14 09:33:12;;;;;;;;;;;8.10;99.90;;;;;;5057454;28;19940;-79
2022/02/14 09:35:38;;;;;;;;;;;8.40;99.90;;;;;;5039238;28;19909;-82
2022/02/14 09:38:04;;;;;;;;;;;10.30;99.90;;;;;;5057104;28;19913;-81
2022/02/14 09:40:30;;;;;;;;;;;12.00;99.90;;;;;;5057124;28;19931;-82
2022/02/14 09:42:57;;;;;;;;;;;12.40;99.90;;;;;;5056959;28;19909;-80
2022/02/14 09:45:24;;;;;;;;;;;13.90;99.90;;;;;;5057210;28;19915;-78
2022/02/14 09:47:58;;;;;;;;;;;13.90;99.90;;;;;;5056949;28;19909;-80
2022/02/14 09:50:23;;;;;;;;;;;14.70;99.90;;;;;;5057130;28;20016;-80
2022/02/14 09:52:49;;;;;;;;;;;14.70;99.90;;;;;;5056837;28;19952;-82
2022/02/14 09:55:15;;;;;;;;;;;15.10;99.90;;;;;;5056952;28;19979;-79
2022/02/14 09:57:41;;;;;;;;;;;15.70;99.90;;;;;;5056826;28;20376;-80
2022/02/14 10:00:08;;;;;;;;;;;15.00;99.90;;;;;;5056708;28;19931;-81
2022/02/14 10:02:35;;;;;;;;;;;16.50;99.90;;;;;;5056684;28;20003;-82
2022/02/14 10:05:07;;;;;;;;;;;17.10;99.90;;;;;;5056611;28;19913;-79
2022/02/14 10:07:43;;;;;;;;;;;16.60;99.90;;;;;;5056668;28;19909;-80
2022/02/14 10:10:17;;;;;;;;;;;17.00;99.90;;;;;;5056582;28;19956;-79
2022/02/14 10:12:44;;;;;;;;;;;17.50;99.90;;;;;;5056516;28;19909;-79
2022/02/14 10:15:10;;;;;;;;;;;17.20;99.90;;;;;;5038591;28;19909;-81
2022/02/14 10:17:40;;;;;;;;;;;16.90;99.90;;;;;;5056064;28;20340;-80
2022/02/14 10:20:06;;;;;;;;;;;16.00;99.90;;;;;;5056955;28;20357;-81
2022/02/14 10:22:31;;;;;;;;;;;16.80;99.90;;;;;;5056380;28;19955;-81
2022/02/14 10:24:57;;;;;;;;;;;17.50;99.90;;;;;;5056188;28;19913;-80
2022/02/14 10:27:30;;;;;;;;;;;18.90;99.90;;;;;;5038325;28;19913;-81
2022/02/14 10:30:05;;;;;;;;;;;17.60;99.90;;;;;;5056307;28;19956;-81
2022/02/14 10:32:31;;;;;;;;;;;17.30;99.90;;;;;;5056492;28;20377;-80
2022/02/14 10:34:57;;;;;;;;;;;17.40;99.90;;;;;;5038191;28;19908;-82
2022/02/14 10:37:40;;;;;;;;;;;17.50;99.90;;;;;;5056066;28;19959;-82
2022/02/14 10:40:07;;;;;;;;;;;16.40;99.90;;;;;;5055890;28;19909;-81
2022/02/14 10:42:36;;;;;;;;;;;16.10;99.90;;;;;;5055964;28;19909;-82
2022/02/14 10:45:08;;;;;;;;;;;17.40;99.90;;;;;;5055786;28;19913;-81
2022/02/14 10:47:41;;;;;;;;;;;17.00;99.90;;;;;;5055870;28;20369;-81
2022/02/14 10:50:11;;;;;;;;;;;18.10;99.90;;;;;;5037907;28;19958;-80
2022/02/14 10:52:44;;;;;;;;;;;18.30;99.90;;;;;;5055738;28;19916;-83
2022/02/14 10:55:17;;;;;;;;;;;18.10;99.40;;;;;;5037791;28;20012;-82
2022/02/14 10:57:43;;;;;;;;;;;18.50;99.40;;;;;;5055795;28;19909;-82
2022/02/14 11:00:10;;;;;;;;;;;19.00;99.80;;;;;;5037730;28;19916;-81
2022/02/14 11:02:37;;;;;;;;;;;19.00;97.80;;;;;;5037642;28;20007;-79
2022/02/14 11:05:04;;;;;;;;;;;19.00;97.60;;;;;;5055444;28;19920;-80
2022/02/14 11:07:30;;;;;;;;;;;19.40;96.40;;;;;;5055713;28;20430;-79
2022/02/14 11:09:57;;;;;;;;;;;19.80;94.40;;;;;;5055728;28;19908;-78
2022/02/14 11:12:23;;;;;;;;;;;17.70;95.20;;;;;;5037776;28;20293;-78
2022/02/14 11:14:54;;;;;;;;;;;17.90;94.60;;;;;;5037461;28;19909;-79
2022/02/14 11:17:29;;;;;;;;;;;17.70;95.20;;;;;;5055115;28;19921;-78
2022/02/14 11:19:56;;;;;;;;;;;20.30;92.30;;;;;;5055465;28;19909;-78
2022/02/14 11:22:24;;;;;;;;;;;17.30;94.70;;;;;;5055369;28;19909;-78
2022/02/14 11:24:53;;;;;;;;;;;20.10;90.90;;;;;;5037245;28;20361;-78
2022/02/14 11:27:21;;;;;;;;;;;18.50;92.10;;;;;;5055107;28;19935;-78
2022/02/14 11:29:47;;;;;;;;;;;17.40;95.70;;;;;;5055056;28;19916;-79
2022/02/14 11:32:38;;;;;;;;;;;19.30;92.50;;;;;;5054980;28;19916;-79
2022/02/14 11:35:06;;;;;;;;;;;20.20;91.20;;;;;;5036810;28;20397;-78
2022/02/14 11:37:46;;;;;;;;;;;21.50;89.10;;;;;;5054875;28;20300;-79
2022/02/14 11:40:30;;;;;;;;;;;23.70;82.30;;;;;;5036980;28;20296;-78
2022/02/14 11:43:09;;;;;;;;;;;25.30;76.30;;;;;;5054730;28;20273;-78
2022/02/14 11:45:36;;;;;;;;;;;25.40;72.20;;;;;;5054769;28;19924;-78
2022/02/14 11:48:20;;;;;;;;;;;24.10;69.50;;;;;;5054827;28;20381;-78
2022/02/14 11:50:45;;;;;;;;;;;22.50;72.10;;;;;;5054104;28;19909;-78
2022/02/14 11:53:30;;;;;;;;;;;21.50;74.00;;;;;;5036642;28;19939;-78
2022/02/14 11:56:15;;;;;;;;;;;22.50;74.20;;;;;;5054896;28;19924;-77
2022/02/14 11:58:59;;;;;;;;;;;19.30;84.20;;;;;;5054595;28;19909;-79
2022/02/14 12:01:24;;;;;;;;;;;18.40;91.20;;;;;;5054961;28;19916;-78
2022/02/14 12:03:50;;;;;;;;;;;18.20;87.00;;;;;;5036535;28;19913;-78
2022/02/14 12:06:16;;;;;;;;;;;17.40;88.80;;;;;;5054385;28;19940;-80
2022/02/14 12:09:01;;;;;;;;;;;15.20;87.00;;;;;;5054455;28;20007;-80
2022/02/14 12:11:45;;;;;;;;;;;14.20;90.00;;;;;;5036077;28;20373;-80
2022/02/14 12:14:26;;;;;;;;;;;13.00;92.90;;;;;;5054243;28;19909;-79
2022/02/14 12:22:41;;;;;;;;;;;11.40;99.90;;;;;;5053477;28;19916;-80
2022/02/14 12:25:07;;;;;;;;;;;10.90;99.90;;;;;;5053458;28;19920;-79
2022/02/14 12:27:32;;;;;;;;;;;10.70;99.90;;;;;;5053200;28;19908;-81
2022/02/14 12:29:58;;;;;;;;;;;10.80;99.90;;;;;;5035268;28;20381;-80
2022/02/14 12:32:23;;;;;;;;;;;10.80;99.90;;;;;;5035189;28;20426;-80
2022/02/14 12:34:50;;;;;;;;;;;11.00;99.90;;;;;;5053113;28;19962;-79
2022/02/14 12:37:16;;;;;;;;;;;11.30;99.90;;;;;;5053106;28;19958;-80
2022/02/14 12:39:43;;;;;;;;;;;11.30;99.90;;;;;;5035144;28;19915;-80
2022/02/14 12:42:19;;;;;;;;;;;11.40;99.90;;;;;;5053013;28;19908;-78
2022/02/14 12:44:45;;;;;;;;;;;11.40;99.90;;;;;;5052881;28;20357;-81
2022/02/14 12:47:11;;;;;;;;;;;11.60;99.90;;;;;;5053007;28;19909;-80
2022/02/14 12:49:40;;;;;;;;;;;12.50;99.90;;;;;;5035048;28;19991;-79
2022/02/14 12:52:15;;;;;;;;;;;13.00;99.90;;;;;;5053005;28;20376;-80
2022/02/14 12:54:50;;;;;;;;;;;13.10;99.90;;;;;;5034953;28;19931;-80
2022/02/14 12:57:16;;;;;;;;;;;13.80;99.90;;;;;;5034921;28;20361;-79
2022/02/14 12:59:41;;;;;;;;;;;14.40;99.90;;;;;;5052828;28;19909;-80
2022/02/14 13:02:07;;;;;;;;;;;14.90;99.90;;;;;;5052338;28;20332;-80
2022/02/14 13:04:33;;;;;;;;;;;16.90;97.80;;;;;;5052112;28;19920;-80
2022/02/14 13:06:59;;;;;;;;;;;22.00;91.50;;;;;;5034865;28;19908;-81
2022/02/14 13:09:26;;;;;;;;;;;25.20;74.20;;;;;;5052726;28;19999;-80
2022/02/14 13:11:53;;;;;;;;;;;27.40;65.00;;;;;;5034747;28;19959;-79
2022/02/14 13:14:41;;;;;;;;;;;27.80;61.30;;;;;;5052600;28;19955;-79
2022/02/14 13:17:09;;;;;;;;;;;25.00;59.90;;;;;;4983476;28;1973231;-78
2022/02/14 13:19:34;;;;;;;;;;;22.70;66.40;;;;;;5035440;28;20023;-79
2022/02/14 13:22:01;;;;;;;;;;;22.20;68.80;;;;;;5053378;28;19944;-77
2022/02/14 13:24:28;;;;;;;;;;;23.00;65.50;;;;;;5053423;28;19913;-78
2022/02/14 13:27:00;;;;;;;;;;;23.10;62.90;;;;;;5053490;28;19908;-78
2022/02/14 13:29:35;;;;;;;;;;;24.00;63.30;;;;;;5053281;28;19909;-79
2022/02/14 13:32:00;;;;;;;;;;;23.50;62.20;;;;;;5053630;28;19909;-78
2022/02/14 13:34:26;;;;;;;;;;;24.20;63.10;;;;;;5053414;28;20047;-79
2022/02/14 13:36:55;;;;;;;;;;;25.10;61.40;;;;;;5053348;28;19909;-78
2022/02/14 13:39:29;;;;;;;;;;;24.00;61.80;;;;;;5035399;28;19915;-79
2022/02/14 13:41:55;;;;;;;;;;;23.60;62.10;;;;;;5053603;28;19952;-78
2022/02/14 13:44:21;;;;;;;;;;;24.20;63.50;;;;;;5035224;28;19920;-79
2022/02/14 13:46:47;;;;;;;;;;;25.10;61.30;;;;;;5053356;28;19909;-78
2022/02/14 13:49:34;;;;;;;;;;;25.80;58.90;;;;;;5053149;28;19909;-78
2022/02/14 13:52:00;;;;;;;;;;;26.60;59.50;;;;;;5053300;28;20369;-78
2022/02/14 13:54:25;;;;;;;;;;;26.90;58.50;;;;;;5053255;28;19916;-79
2022/02/14 13:56:52;;;;;;;;;;;26.80;58.20;;;;;;5053174;28;19909;-78
2022/02/14 13:59:19;;;;;;;;;;;26.40;56.40;;;;;;5035188;28;19909;-78
2022/02/14 14:01:45;;;;;;;;;;;26.90;57.00;;;;;;5052973;28;19909;-78
2022/02/14 14:04:24;;;;;;;;;;;27.70;56.90;;;;;;5052916;28;19913;-78
2022/02/14 14:07:13;;;;;;;;;;;28.30;54.40;;;;;;5053607;28;19913;-78
2022/02/14 14:09:55;;;;;;;;;;;28.90;54.30;;;;;;5024631;28;19913;-79
2022/02/14 14:12:21;;;;;;;;;;;29.40;53.50;;;;;;5053127;28;19908;-78
2022/02/14 14:14:48;;;;;;;;;;;30.00;51.60;;;;;;5054975;28;19909;-78
2022/02/14 14:17:16;;;;;;;;;;;29.70;51.30;;;;;;5038347;28;19925;-78
2022/02/14 14:19:45;;;;;;;;;;;30.60;51.60;;;;;;5056404;28;19916;-78
2022/02/14 14:22:11;;;;;;;;;;;28.50;49.10;;;;;;5056785;28;19924;-78
2022/02/14 14:24:37;;;;;;;;;;;29.50;50.40;;;;;;5038359;28;19913;-79
2022/02/14 14:27:02;;;;;;;;;;;28.90;48.80;;;;;;5056288;28;19909;-77
2022/02/14 14:29:28;;;;;;;;;;;23.80;53.10;;;;;;5056268;28;19909;-77
2022/02/14 14:31:54;;;;;;;;;;;21.60;57.60;;;;;;5056185;28;20038;-77